createdAt,value
2023-02-19T00:03:16.995Z,77.53
2023-02-19T00:08:20.125Z,77.93
2023-02-19T00:13:23.127Z,77.53
2023-02-19T00:18:26.166Z,76.97
2023-02-19T00:23:29.326Z,77.42
2023-02-19T00:28:32.542Z,77.29
2023-02-19T00:33:36.021Z,76.32
2023-02-19T00:38:41.000Z,76.55
2023-02-19T00:43:44.143Z,75.92
2023-02-19T00:48:47.716Z,76.49
2023-02-19T00:53:51.216Z,76.19
2023-02-19T00:58:54.428Z,76.11
2023-02-19T01:03:57.798Z,75.02
2023-02-19T01:09:01.523Z,75.30
2023-02-19T01:14:05.298Z,75.47
2023-02-19T01:19:09.115Z,75.46
2023-02-19T01:24:15.106Z,74.75
2023-02-19T01:29:18.106Z,74.82
2023-02-19T01:34:21.736Z,73.99
2023-02-19T01:39:24.710Z,74.41
2023-02-19T01:44:27.638Z,73.82
2023-02-19T01:49:36.523Z,73.88
2023-02-19T01:54:43.385Z,73.23
2023-02-19T01:59:50.386Z,73.40
2023-02-19T02:04:53.723Z,74.02
2023-02-19T02:10:15.726Z,72.80
2023-02-19T02:15:19.918Z,73.14
2023-02-19T02:20:58.954Z,72.89
2023-02-19T02:26:30.959Z,73.06
2023-02-19T02:31:47.063Z,72.95
2023-02-19T02:36:55.745Z,72.80
2023-02-19T02:42:18.964Z,73.81
2023-02-19T02:47:43.428Z,73.20
2023-02-19T02:53:10.198Z,74.08
2023-02-19T02:58:15.017Z,73.29
2023-02-19T03:03:21.558Z,73.46
2023-02-19T03:08:30.017Z,73.28
2023-02-19T03:13:56.251Z,73.33
2023-02-19T03:19:19.120Z,73.49
2023-02-19T03:24:46.254Z,73.30
2023-02-19T03:29:52.436Z,72.63
2023-02-19T03:35:14.168Z,73.27
2023-02-19T03:40:18.062Z,73.67
2023-02-19T03:45:27.274Z,73.53
2023-02-19T03:50:30.803Z,73.59
2023-02-19T03:55:40.413Z,73.33
2023-02-19T04:00:56.081Z,73.31
2023-02-19T04:06:03.579Z,72.84
2023-02-19T04:11:09.153Z,72.89
2023-02-19T04:16:23.194Z,72.49
2023-02-19T04:21:30.147Z,72.60
2023-02-19T04:26:34.756Z,72.76
2023-02-19T04:31:38.914Z,73.06
2023-02-19T04:36:41.851Z,72.33
2023-02-19T04:41:44.880Z,71.47
2023-02-19T04:46:48.075Z,71.78
2023-02-19T04:51:51.112Z,71.63
2023-02-19T04:56:54.104Z,71.98
2023-02-19T05:01:58.308Z,71.75
2023-02-19T05:07:01.349Z,71.24
2023-02-19T05:12:04.626Z,71.40
2023-02-19T05:17:07.668Z,71.81
2023-02-19T05:22:10.776Z,71.45
2023-02-19T05:27:13.816Z,70.60
2023-02-19T05:32:16.840Z,71.46
2023-02-19T05:37:19.934Z,71.24
2023-02-19T05:42:23.081Z,70.91
2023-02-19T05:47:26.114Z,70.34
2023-02-19T05:52:29.139Z,70.42
2023-02-19T05:57:32.180Z,70.23
2023-02-19T06:02:36.374Z,70.43
2023-02-19T06:07:39.937Z,69.70
2023-02-19T06:12:42.962Z,69.75
2023-02-19T06:17:45.938Z,69.93
2023-02-19T06:22:51.127Z,69.81
2023-02-19T06:27:54.328Z,70.33
2023-02-19T06:32:57.501Z,69.76
2023-02-19T06:38:00.499Z,69.34
2023-02-19T06:43:03.771Z,70.04
2023-02-19T06:48:07.034Z,69.80
2023-02-19T06:53:11.943Z,69.21
2023-02-19T06:58:14.877Z,68.91
2023-02-19T07:03:17.989Z,69.09
2023-02-19T07:08:21.092Z,69.29
2023-02-19T07:13:27.015Z,69.80
2023-02-19T07:18:30.960Z,69.95
2023-02-19T07:23:34.802Z,68.65
2023-02-19T07:28:37.848Z,69.08
2023-02-19T07:33:43.799Z,69.04
2023-02-19T07:38:46.920Z,68.81
2023-02-19T07:43:49.977Z,69.46
2023-02-19T07:48:53.114Z,69.20
2023-02-19T07:53:56.158Z,68.69
2023-02-19T07:59:00.655Z,68.27
2023-02-19T08:04:03.613Z,68.25
2023-02-19T08:09:07.080Z,67.81
2023-02-19T08:14:10.100Z,68.01
2023-02-19T08:19:13.126Z,67.61
2023-02-19T08:24:16.177Z,67.68
2023-02-19T08:29:19.260Z,67.84
2023-02-19T08:34:22.293Z,67.17
2023-02-19T08:39:25.385Z,66.45
2023-02-19T08:44:28.483Z,67.51
2023-02-19T08:49:31.538Z,66.68
2023-02-19T08:54:36.208Z,66.83
2023-02-19T08:59:40.221Z,66.22
2023-02-19T09:04:43.354Z,66.01
2023-02-19T09:09:46.390Z,65.81
2023-02-19T09:14:49.598Z,65.35
2023-02-19T09:19:52.639Z,65.70
2023-02-19T09:24:55.744Z,66.10
2023-02-19T09:29:58.943Z,65.70
2023-02-19T09:35:01.970Z,65.59
2023-02-19T09:40:06.562Z,65.05
2023-02-19T09:45:21.435Z,64.52
2023-02-19T09:50:37.677Z,64.90
2023-02-19T09:55:43.217Z,64.73
2023-02-19T10:00:49.948Z,64.23
2023-02-19T10:05:54.271Z,64.09
2023-02-19T10:10:57.270Z,64.31
2023-02-19T10:16:04.225Z,64.36
2023-02-19T10:21:07.902Z,63.61
2023-02-19T10:26:11.137Z,64.01
2023-02-19T10:31:25.766Z,63.19
2023-02-19T10:36:40.006Z,62.39
2023-02-19T10:41:44.313Z,62.68
2023-02-19T10:46:50.650Z,61.99
2023-02-19T10:51:56.218Z,62.81
2023-02-19T10:57:40.902Z,62.87
2023-02-19T11:02:45.451Z,63.52
2023-02-19T11:07:54.945Z,63.50
2023-02-19T11:13:05.159Z,63.38
2023-02-19T11:18:13.698Z,63.94
2023-02-19T11:23:31.088Z,64.11
2023-02-19T11:28:40.926Z,63.86
2023-02-19T11:34:05.497Z,64.38
2023-02-19T11:39:22.279Z,63.91
2023-02-19T11:44:47.011Z,63.96
2023-02-19T11:50:11.878Z,63.86
2023-02-19T11:55:14.713Z,63.75
2023-02-19T12:00:51.587Z,63.65
2023-02-19T12:06:38.871Z,64.56
2023-02-19T12:11:53.875Z,64.33
2023-02-19T12:17:31.726Z,64.94
2023-02-19T12:22:46.349Z,64.79
2023-02-19T12:28:27.353Z,64.40
2023-02-19T12:33:48.341Z,64.82
2023-02-19T12:39:25.595Z,64.98
2023-02-19T12:44:48.630Z,64.74
2023-02-19T12:49:59.687Z,64.46
2023-02-19T12:55:28.900Z,65.32
2023-02-19T13:00:39.864Z,65.22
2023-02-19T13:05:50.653Z,65.14
2023-02-19T13:11:30.628Z,64.70
2023-02-19T13:16:37.583Z,65.09
2023-02-19T13:21:59.783Z,64.87
2023-02-19T13:27:24.173Z,65.46
2023-02-19T13:32:48.613Z,65.96
2023-02-19T13:37:53.845Z,65.48
2023-02-19T13:43:00.116Z,66.06
2023-02-19T13:48:26.845Z,65.79
2023-02-19T13:53:52.084Z,66.07
2023-02-19T13:58:57.727Z,66.51
2023-02-19T14:04:23.738Z,66.91
2023-02-19T14:09:41.552Z,66.33
2023-02-19T14:14:57.724Z,66.23
2023-02-19T14:20:44.568Z,66.80
2023-02-19T14:26:00.035Z,66.89
2023-02-19T14:31:25.165Z,67.37
2023-02-19T14:36:28.255Z,66.87
2023-02-19T14:41:34.359Z,66.76
2023-02-19T14:46:45.671Z,67.60
2023-02-19T14:51:53.262Z,68.00
2023-02-19T14:56:57.609Z,68.05
2023-02-19T15:02:14.852Z,68.28
2023-02-19T15:07:24.962Z,68.03
2023-02-19T15:12:34.965Z,69.04
2023-02-19T15:17:41.911Z,68.73
2023-02-19T15:22:46.560Z,69.17
2023-02-19T15:27:50.499Z,69.39
2023-02-19T15:32:55.989Z,69.23
2023-02-19T15:37:59.141Z,69.26
2023-02-19T15:43:02.300Z,69.71
2023-02-19T15:48:13.934Z,69.97
2023-02-19T15:53:23.857Z,69.64
2023-02-19T15:58:42.986Z,69.80
2023-02-19T16:03:46.374Z,69.87
2023-02-19T16:09:02.431Z,69.85
2023-02-19T16:14:23.930Z,69.46
2023-02-19T16:19:33.743Z,70.12
2023-02-19T16:24:45.531Z,70.73
2023-02-19T16:29:51.925Z,71.42
2023-02-19T16:34:54.975Z,70.94
2023-02-19T16:40:11.463Z,70.50
2023-02-19T16:45:16.364Z,71.29
2023-02-19T16:50:23.370Z,71.05
2023-02-19T16:55:26.493Z,71.75
2023-02-19T17:00:34.673Z,70.64
2023-02-19T17:05:39.085Z,71.46
2023-02-19T17:10:42.182Z,71.62
2023-02-19T17:15:45.195Z,71.27
2023-02-19T17:20:55.724Z,71.40
2023-02-19T17:25:58.830Z,72.29
2023-02-19T17:31:01.942Z,72.43
2023-02-19T17:36:05.386Z,71.88
2023-02-19T17:41:08.574Z,71.63
2023-02-19T17:46:26.053Z,72.12
2023-02-19T17:51:29.080Z,72.51
2023-02-19T17:56:32.129Z,72.76
2023-02-19T18:01:35.257Z,72.60
2023-02-19T18:06:38.403Z,72.58
2023-02-19T18:11:46.352Z,73.11
2023-02-19T18:16:50.697Z,73.21
2023-02-19T18:21:53.908Z,73.06
2023-02-19T18:26:56.990Z,72.90
2023-02-19T18:32:00.160Z,73.12
2023-02-19T18:37:03.533Z,72.94
2023-02-19T18:42:06.624Z,73.48
2023-02-19T18:47:11.765Z,74.14
2023-02-19T18:52:16.452Z,73.36
2023-02-19T18:57:21.022Z,73.58
2023-02-19T19:02:24.243Z,73.65
2023-02-19T19:07:27.359Z,73.32
2023-02-19T19:12:30.610Z,73.73
2023-02-19T19:17:33.672Z,74.06
2023-02-19T19:22:37.471Z,74.10
2023-02-19T19:27:40.433Z,73.92
2023-02-19T19:32:43.465Z,73.72
2023-02-19T19:37:46.504Z,73.70
2023-02-19T19:42:52.660Z,73.72
2023-02-19T19:47:55.777Z,73.47
2023-02-19T19:52:58.819Z,73.83
2023-02-19T19:58:01.803Z,74.04
2023-02-19T20:03:05.845Z,74.40
2023-02-19T20:08:08.947Z,74.17
2023-02-19T20:13:12.150Z,73.85
2023-02-19T20:18:15.180Z,74.41
2023-02-19T20:23:18.213Z,74.51
2023-02-19T20:28:21.251Z,74.48
2023-02-19T20:33:24.265Z,74.71
2023-02-19T20:38:27.285Z,73.64
2023-02-19T20:43:30.343Z,74.17
2023-02-19T20:48:33.368Z,74.18
2023-02-19T20:53:38.115Z,73.84
2023-02-19T20:58:43.910Z,73.85
2023-02-19T21:03:46.901Z,73.75
2023-02-19T21:08:49.853Z,73.59
2023-02-19T21:13:53.034Z,73.91
2023-02-19T21:18:56.636Z,74.14
2023-02-19T21:24:00.999Z,74.01
2023-02-19T21:29:08.227Z,72.86
2023-02-19T21:34:14.437Z,73.07
2023-02-19T21:39:20.111Z,73.15
2023-02-19T21:44:23.227Z,73.34
2023-02-19T21:49:26.350Z,73.97
2023-02-19T21:54:29.495Z,73.78
2023-02-19T21:59:32.529Z,73.93
2023-02-19T22:04:35.510Z,73.85
2023-02-19T22:09:39.208Z,73.84
2023-02-19T22:14:43.896Z,73.71
2023-02-19T22:19:47.051Z,74.02
2023-02-19T22:24:50.097Z,73.29
2023-02-19T22:29:53.072Z,73.55
2023-02-19T22:34:56.046Z,74.25
2023-02-19T22:39:59.095Z,74.02
2023-02-19T22:45:02.196Z,73.73
2023-02-19T22:50:16.299Z,73.69
2023-02-19T22:55:19.417Z,73.44
2023-02-19T23:00:22.606Z,73.51
2023-02-19T23:05:25.815Z,73.33
2023-02-19T23:10:29.032Z,73.39
2023-02-19T23:15:32.065Z,73.30
2023-02-19T23:20:35.745Z,73.02
2023-02-19T23:25:38.860Z,72.27
2023-02-19T23:30:41.936Z,72.99
2023-02-19T23:35:45.231Z,73.13
2023-02-19T23:40:48.374Z,73.02
2023-02-19T23:45:51.523Z,73.12
2023-02-19T23:50:54.615Z,72.70
2023-02-19T23:55:57.685Z,73.03
